Sebec Lake, Maine
Current Conditions -  °F | °C
As of 10:32 AM on Friday 24 Oct 2014 (Local Time) from KMLT Reporting Station
Overcast Overcast  
Wind Chill: 39°   Ceiling: 1400
Heat Index: 44°   Visibility: 10mi
Dew Point: 41°   Wind: 10mph
Humidity: 89%   Direction: 10°N
Pressure: 29.73"   Gusts: 22mph
Location:  45.2997°N, 69.3389°W
Report Text: KMLT 241432Z AUTO 01009G19KT 10SM OVC014 07/05 A2973 RMK AO2 T00670050
Loading
Personal Weather Stations






























Interactive Weather Map
Tropical Storm Tracking
New forecast layout! Learn more

10-Day Weather Forecast

Advertisements
Track Severe Weather on mobile